sensor_id;sensor_type;location;lat;lon;timestamp;pressure;altitude;pressure_sealevel;temperature;humidity
72896;BME280;61036;53.224;6.554;2022-12-18T00:00:58;102872.50;;;-4.05;100.00
72896;BME280;61036;53.224;6.554;2022-12-18T00:03:23;102870.94;;;-3.92;100.00
72896;BME280;61036;53.224;6.554;2022-12-18T00:05:50;102875.13;;;-4.03;100.00
72896;BME280;61036;53.224;6.554;2022-12-18T00:08:16;102873.47;;;-4.00;100.00
72896;BME280;61036;53.224;6.554;2022-12-18T00:10:43;102881.44;;;-3.95;100.00
72896;BME280;61036;53.224;6.554;2022-12-18T00:13:10;102873.47;;;-4.00;100.00
72896;BME280;61036;53.224;6.554;2022-12-18T00:15:37;102886.53;;;-4.04;100.00
72896;BME280;61036;53.224;6.554;2022-12-18T00:18:03;102870.78;;;-4.03;100.00
72896;BME280;61036;53.224;6.554;2022-12-18T00:20:29;102882.00;;;-4.13;100.00
72896;BME280;61036;53.224;6.554;2022-12-18T00:22:56;102880.41;;;-4.03;100.00
72896;BME280;61036;53.224;6.554;2022-12-18T00:25:22;102877.66;;;-4.11;100.00
72896;BME280;61036;53.224;6.554;2022-12-18T00:27:47;102877.56;;;-4.16;100.00
72896;BME280;61036;53.224;6.554;2022-12-18T00:30:14;102866.13;;;-4.16;100.00
72896;BME280;61036;53.224;6.554;2022-12-18T00:32:40;102870.34;;;-4.26;100.00
72896;BME280;61036;53.224;6.554;2022-12-18T00:35:08;102879.31;;;-4.16;100.00
72896;BME280;61036;53.224;6.554;2022-12-18T00:37:34;102874.75;;;-4.25;100.00
72896;BME280;61036;53.224;6.554;2022-12-18T00:40:00;102876.25;;;-4.39;100.00
72896;BME280;61036;53.224;6.554;2022-12-18T00:42:28;102879.72;;;-4.40;100.00
72896;BME280;61036;53.224;6.554;2022-12-18T00:45:12;102894.00;;;-4.27;100.00
72896;BME280;61036;53.224;6.554;2022-12-18T00:47:41;102893.19;;;-4.25;100.00
72896;BME280;61036;53.224;6.554;2022-12-18T00:50:07;102897.56;;;-4.25;100.00
72896;BME280;61036;53.224;6.554;2022-12-18T00:52:34;102894.97;;;-4.24;100.00
72896;BME280;61036;53.224;6.554;2022-12-18T00:54:59;102886.91;;;-4.33;100.00
72896;BME280;61036;53.224;6.554;2022-12-18T00:57:25;102892.19;;;-4.31;100.00
72896;BME280;61036;53.224;6.554;2022-12-18T00:59:51;102893.78;;;-4.40;100.00
72896;BME280;61036;53.224;6.554;2022-12-18T01:02:17;102886.97;;;-4.30;100.00
72896;BME280;61036;53.224;6.554;2022-12-18T01:04:43;102879.66;;;-4.45;100.00
72896;BME280;61036;53.224;6.554;2022-12-18T01:07:10;102879.59;;;-4.48;100.00
72896;BME280;61036;53.224;6.554;2022-12-18T01:09:36;102883.06;;;-4.49;100.00
72896;BME280;61036;53.224;6.554;2022-12-18T01:12:02;102891.59;;;-4.61;100.00
72896;BME280;61036;53.224;6.554;2022-12-18T01:14:29;102895.97;;;-4.61;100.00
72896;BME280;61036;53.224;6.554;2022-12-18T01:16:58;102896.78;;;-4.65;100.00
72896;BME280;61036;53.224;6.554;2022-12-18T01:19:23;102904.88;;;-4.56;100.00
72896;BME280;61036;53.224;6.554;2022-12-18T01:21:49;102901.53;;;-4.47;100.00
72896;BME280;61036;53.224;6.554;2022-12-18T01:24:15;102898.66;;;-4.58;100.00
72896;BME280;61036;53.224;6.554;2022-12-18T01:26:41;102900.41;;;-4.58;100.00
72896;BME280;61036;53.224;6.554;2022-12-18T01:29:07;102907.31;;;-4.65;100.00
72896;BME280;61036;53.224;6.554;2022-12-18T01:31:33;102912.72;;;-4.57;100.00
72896;BME280;61036;53.224;6.554;2022-12-18T01:34:02;102909.19;;;-4.58;100.00
72896;BME280;61036;53.224;6.554;2022-12-18T01:36:35;102906.38;;;-4.67;100.00
72896;BME280;61036;53.224;6.554;2022-12-18T01:39:07;102907.13;;;-4.73;100.00
72896;BME280;61036;53.224;6.554;2022-12-18T01:41:34;102910.56;;;-4.77;100.00
72896;BME280;61036;53.224;6.554;2022-12-18T01:50:34;102913.28;;;-4.72;100.00
72896;BME280;61036;53.224;6.554;2022-12-18T01:53:05;102913.88;;;-4.86;100.00
72896;BME280;61036;53.224;6.554;2022-12-18T01:55:36;102913.72;;;-4.93;100.00
72896;BME280;61036;53.224;6.554;2022-12-18T01:58:03;102910.44;;;-4.83;100.00
72896;BME280;61036;53.224;6.554;2022-12-18T02:00:31;102911.94;;;-4.94;100.00
72896;BME280;61036;53.224;6.554;2022-12-18T02:02:57;102912.69;;;-5.00;100.00
72896;BME280;61036;53.224;6.554;2022-12-18T02:08:14;102926.72;;;-4.99;100.00
72896;BME280;61036;53.224;6.554;2022-12-18T02:10:54;102924.88;;;-5.05;100.00
72896;BME280;61036;53.224;6.554;2022-12-18T02:13:40;102936.50;;;-4.94;100.00
72896;BME280;61036;53.224;6.554;2022-12-18T02:18:59;102926.63;;;-5.04;100.00
72896;BME280;61036;53.224;6.554;2022-12-18T02:24:16;102923.19;;;-5.01;100.00
72896;BME280;61036;53.224;6.554;2022-12-18T02:26:50;102921.44;;;-5.01;100.00
72896;BME280;61036;53.224;6.554;2022-12-18T02:29:25;102919.53;;;-5.08;100.00
72896;BME280;61036;53.224;6.554;2022-12-18T02:31:59;102912.53;;;-5.06;100.00
72896;BME280;61036;53.224;6.554;2022-12-18T02:34:28;102916.06;;;-5.06;100.00
72896;BME280;61036;53.224;6.554;2022-12-18T02:36:57;102921.38;;;-5.04;100.00
72896;BME280;61036;53.224;6.554;2022-12-18T02:39:25;102918.59;;;-5.10;100.00
72896;BME280;61036;53.224;6.554;2022-12-18T02:41:57;102917.53;;;-5.18;100.00
72896;BME280;61036;53.224;6.554;2022-12-18T02:44:24;102907.88;;;-5.19;100.00
72896;BME280;61036;53.224;6.554;2022-12-18T02:46:52;102897.16;;;-5.27;100.00
72896;BME280;61036;53.224;6.554;2022-12-18T03:03:06;102896.25;;;-5.29;100.00
72896;BME280;61036;53.224;6.554;2022-12-18T03:05:47;102899.78;;;-5.27;100.00
72896;BME280;61036;53.224;6.554;2022-12-18T03:08:28;102907.00;;;-5.18;100.00
72896;BME280;61036;53.224;6.554;2022-12-18T03:11:08;102906.84;;;-5.26;100.00
72896;BME280;61036;53.224;6.554;2022-12-18T03:13:40;102911.88;;;-5.35;100.00
72896;BME280;61036;53.224;6.554;2022-12-18T03:16:16;102910.09;;;-5.36;100.00
72896;BME280;61036;53.224;6.554;2022-12-18T03:21:13;102907.44;;;-5.38;100.00
72896;BME280;61036;53.224;6.554;2022-12-18T03:23:43;102913.56;;;-5.37;100.00
72896;BME280;61036;53.224;6.554;2022-12-18T03:26:16;102903.94;;;-5.37;100.00
72896;BME280;61036;53.224;6.554;2022-12-18T03:28:49;102903.84;;;-5.41;100.00
72896;BME280;61036;53.224;6.554;2022-12-18T03:31:18;102907.25;;;-5.45;100.00
72896;BME280;61036;53.224;6.554;2022-12-18T03:33:55;102897.59;;;-5.46;100.00
72896;BME280;61036;53.224;6.554;2022-12-18T03:36:27;102905.53;;;-5.43;100.00
72896;BME280;61036;53.224;6.554;2022-12-18T03:38:53;102897.88;;;-5.34;100.00
72896;BME280;61036;53.224;6.554;2022-12-18T03:44:16;102907.31;;;-5.42;100.00
72896;BME280;61036;53.224;6.554;2022-12-18T03:47:00;102903.84;;;-5.41;100.00
72896;BME280;61036;53.224;6.554;2022-12-18T03:49:48;102909.06;;;-5.43;100.00
72896;BME280;61036;53.224;6.554;2022-12-18T03:52:30;102897.81;;;-5.37;100.00
72896;BME280;61036;53.224;6.554;2022-12-18T03:54:59;102899.47;;;-5.41;100.00
72896;BME280;61036;53.224;6.554;2022-12-18T03:57:28;102896.78;;;-5.42;100.00
72896;BME280;61036;53.224;6.554;2022-12-18T04:00:04;102888.09;;;-5.40;100.00
72896;BME280;61036;53.224;6.554;2022-12-18T04:02:43;102895.81;;;-5.47;100.00
72896;BME280;61036;53.224;6.554;2022-12-18T04:05:12;102893.28;;;-5.43;100.00
72896;BME280;61036;53.224;6.554;2022-12-18T04:07:41;102886.22;;;-5.45;100.00
72896;BME280;61036;53.224;6.554;2022-12-18T04:10:09;102884.50;;;-5.43;100.00
72896;BME280;61036;53.224;6.554;2022-12-18T04:12:37;102897.59;;;-5.45;100.00
72896;BME280;61036;53.224;6.554;2022-12-18T04:15:10;102890.44;;;-5.52;100.00
72896;BME280;61036;53.224;6.554;2022-12-18T04:17:36;102888.09;;;-5.40;100.00
72896;BME280;61036;53.224;6.554;2022-12-18T04:20:04;102893.34;;;-5.40;100.00
72896;BME280;61036;53.224;6.554;2022-12-18T04:22:31;102889.94;;;-5.36;100.00
72896;BME280;61036;53.224;6.554;2022-12-18T04:24:58;102895.84;;;-5.46;100.00
72896;BME280;61036;53.224;6.554;2022-12-18T04:28:07;102895.75;;;-5.49;100.00
72896;BME280;61036;53.224;6.554;2022-12-18T04:30:34;102897.59;;;-5.45;100.00
72896;BME280;61036;53.224;6.554;2022-12-18T04:33:02;102899.25;;;-5.50;100.00
72896;BME280;61036;53.224;6.554;2022-12-18T04:35:29;102899.28;;;-5.48;100.00
72896;BME280;61036;53.224;6.554;2022-12-18T04:37:56;102898.53;;;-5.44;100.00
72896;BME280;61036;53.224;6.554;2022-12-18T04:40:21;102904.38;;;-5.55;100.00
72896;BME280;61036;53.224;6.554;2022-12-18T04:42:47;102910.38;;;-5.60;100.00
72896;BME280;61036;53.224;6.554;2022-12-18T04:45:13;102899.84;;;-5.62;100.00
72896;BME280;61036;53.224;6.554;2022-12-18T04:47:39;102903.59;;;-5.51;100.00
72896;BME280;61036;53.224;6.554;2022-12-18T04:50:07;102891.31;;;-5.52;100.00
72896;BME280;61036;53.224;6.554;2022-12-18T04:52:34;102891.97;;;-5.60;100.00
72896;BME280;61036;53.224;6.554;2022-12-18T04:55:00;102883.06;;;-5.67;100.00
72896;BME280;61036;53.224;6.554;2022-12-18T04:57:26;102894.47;;;-5.66;100.00
72896;BME280;61036;53.224;6.554;2022-12-18T04:59:51;102900.94;;;-5.52;100.00
72896;BME280;61036;53.224;6.554;2022-12-18T05:02:17;102901.66;;;-5.59;100.00
72896;BME280;61036;53.224;6.554;2022-12-18T05:04:45;102895.31;;;-5.67;100.00
72896;BME280;61036;53.224;6.554;2022-12-18T05:07:13;102907.34;;;-5.77;100.00
72896;BME280;61036;53.224;6.554;2022-12-18T05:09:39;102908.47;;;-5.67;100.00
72896;BME280;61036;53.224;6.554;2022-12-18T05:12:06;102901.59;;;-5.62;100.00
72896;BME280;61036;53.224;6.554;2022-12-18T05:14:33;102901.50;;;-5.65;100.00
72896;BME280;61036;53.224;6.554;2022-12-18T05:16:58;102905.97;;;-5.61;100.00
72896;BME280;61036;53.224;6.554;2022-12-18T05:19:24;102903.44;;;-5.58;100.00
72896;BME280;61036;53.224;6.554;2022-12-18T05:21:50;102909.41;;;-5.64;100.00
72896;BME280;61036;53.224;6.554;2022-12-18T05:24:15;102913.09;;;-5.57;100.00
72896;BME280;61036;53.224;6.554;2022-12-18T05:26:42;102901.59;;;-5.62;100.00
72896;BME280;61036;53.224;6.554;2022-12-18T05:29:08;102907.09;;;-5.52;100.00
72896;BME280;61036;53.224;6.554;2022-12-18T05:31:39;102901.59;;;-5.61;100.00
72896;BME280;61036;53.224;6.554;2022-12-18T05:34:05;102901.66;;;-5.59;100.00
72896;BME280;61036;53.224;6.554;2022-12-18T05:36:32;102895.41;;;-5.63;100.00
72896;BME280;61036;53.224;6.554;2022-12-18T05:38:57;102899.03;;;-5.59;100.00
72896;BME280;61036;53.224;6.554;2022-12-18T05:41:23;102905.34;;;-5.51;100.00
72896;BME280;61036;53.224;6.554;2022-12-18T05:43:48;102908.84;;;-5.51;100.00
72896;BME280;61036;53.224;6.554;2022-12-18T05:46:16;102906.78;;;-5.64;100.00
72896;BME280;61036;53.224;6.554;2022-12-18T05:48:45;102904.09;;;-5.67;100.00
72896;BME280;61036;53.224;6.554;2022-12-18T05:51:13;102899.78;;;-5.63;100.00
72896;BME280;61036;53.224;6.554;2022-12-18T05:53:40;102906.72;;;-5.67;100.00
72896;BME280;61036;53.224;6.554;2022-12-18T05:56:13;102912.97;;;-5.62;100.00
72896;BME280;61036;53.224;6.554;2022-12-18T05:58:40;102920.47;;;-5.77;100.00
72896;BME280;61036;53.224;6.554;2022-12-18T06:01:20;102917.03;;;-5.75;100.00
72896;BME280;61036;53.224;6.554;2022-12-18T06:03:48;102935.34;;;-5.78;100.00
72896;BME280;61036;53.224;6.554;2022-12-18T06:06:23;102935.34;;;-5.78;100.00
72896;BME280;61036;53.224;6.554;2022-12-18T06:08:50;102944.06;;;-5.79;100.00
72896;BME280;61036;53.224;6.554;2022-12-18T06:11:18;102940.78;;;-5.71;100.00
72896;BME280;61036;53.224;6.554;2022-12-18T06:13:45;102953.84;;;-5.73;100.00
72896;BME280;61036;53.224;6.554;2022-12-18T06:16:11;102951.22;;;-5.75;100.00
72896;BME280;61036;53.224;6.554;2022-12-18T06:18:37;102952.91;;;-5.77;100.00
72896;BME280;61036;53.224;6.554;2022-12-18T06:21:03;102960.72;;;-5.78;100.00
72896;BME280;61036;53.224;6.554;2022-12-18T06:23:29;102962.69;;;-5.71;100.00
72896;BME280;61036;53.224;6.554;2022-12-18T06:25:55;102958.34;;;-5.69;100.00
72896;BME280;61036;53.224;6.554;2022-12-18T06:28:21;102948.69;;;-5.70;100.00
72896;BME280;61036;53.224;6.554;2022-12-18T06:30:47;102947.59;;;-5.78;100.00
72896;BME280;61036;53.224;6.554;2022-12-18T06:33:17;102938.16;;;-5.70;100.00
72896;BME280;61036;53.224;6.554;2022-12-18T06:35:43;102931.97;;;-5.72;100.00
72896;BME280;61036;53.224;6.554;2022-12-18T06:38:11;102927.72;;;-5.68;100.00
72896;BME280;61036;53.224;6.554;2022-12-18T06:40:37;102926.94;;;-5.64;100.00
72896;BME280;61036;53.224;6.554;2022-12-18T06:43:04;102920.47;;;-5.77;100.00
72896;BME280;61036;53.224;6.554;2022-12-18T06:45:29;102914.56;;;-5.68;100.00
72896;BME280;61036;53.224;6.554;2022-12-18T06:47:58;102910.06;;;-5.72;100.00
72896;BME280;61036;53.224;6.554;2022-12-18T06:50:23;102902.00;;;-5.80;100.00
72896;BME280;61036;53.224;6.554;2022-12-18T06:52:50;102906.34;;;-5.81;100.00
72896;BME280;61036;53.224;6.554;2022-12-18T06:55:16;102916.59;;;-5.91;100.00
72896;BME280;61036;53.224;6.554;2022-12-18T06:57:41;102914.63;;;-6.02;100.00
72896;BME280;61036;53.224;6.554;2022-12-18T07:00:07;102917.25;;;-6.02;100.00
72896;BME280;61036;53.224;6.554;2022-12-18T07:02:36;102905.81;;;-6.04;100.00
72896;BME280;61036;53.224;6.554;2022-12-18T07:05:02;102901.28;;;-6.08;100.00
72896;BME280;61036;53.224;6.554;2022-12-18T07:07:27;102903.19;;;-6.04;100.00
72896;BME280;61036;53.224;6.554;2022-12-18T07:09:53;102905.44;;;-5.83;100.00
72896;BME280;61036;53.224;6.554;2022-12-18T07:12:18;102903.56;;;-5.87;100.00
72896;BME280;61036;53.224;6.554;2022-12-18T07:14:44;102902.44;;;-5.98;100.00
72896;BME280;61036;53.224;6.554;2022-12-18T07:17:10;102895.38;;;-6.01;100.00
72896;BME280;61036;53.224;6.554;2022-12-18T07:19:36;102882.41;;;-5.94;100.00
72896;BME280;61036;53.224;6.554;2022-12-18T07:22:02;102884.22;;;-5.90;100.00
72896;BME280;61036;53.224;6.554;2022-12-18T07:24:32;102878.84;;;-5.96;100.00
72896;BME280;61036;53.224;6.554;2022-12-18T07:26:58;102880.63;;;-5.95;100.00
72896;BME280;61036;53.224;6.554;2022-12-18T07:29:24;102876.31;;;-5.92;100.00
72896;BME280;61036;53.224;6.554;2022-12-18T07:31:50;102871.31;;;-5.81;100.00
72896;BME280;61036;53.224;6.554;2022-12-18T07:34:16;102870.25;;;-5.89;100.00
72896;BME280;61036;53.224;6.554;2022-12-18T07:36:42;102876.63;;;-5.78;100.00
72896;BME280;61036;53.224;6.554;2022-12-18T07:39:08;102874.06;;;-5.77;100.00
72896;BME280;61036;53.224;6.554;2022-12-18T07:41:33;102875.75;;;-5.80;100.00
72896;BME280;61036;53.224;6.554;2022-12-18T07:44:09;102883.63;;;-5.80;100.00
72896;BME280;61036;53.224;6.554;2022-12-18T07:46:35;102882.03;;;-5.73;100.00
72896;BME280;61036;53.224;6.554;2022-12-18T07:49:03;102883.63;;;-5.80;100.00
72896;BME280;61036;53.224;6.554;2022-12-18T07:51:28;102886.25;;;-5.80;100.00
72896;BME280;61036;53.224;6.554;2022-12-18T07:53:54;102885.25;;;-5.84;100.00
72896;BME280;61036;53.224;6.554;2022-12-18T07:56:20;102890.13;;;-5.64;100.00
72896;BME280;61036;53.224;6.554;2022-12-18T07:58:46;102899.03;;;-5.59;100.00
72896;BME280;61036;53.224;6.554;2022-12-18T08:01:14;102904.44;;;-5.53;100.00
72896;BME280;61036;53.224;6.554;2022-12-18T08:03:42;102894.16;;;-5.44;100.00
72896;BME280;61036;53.224;6.554;2022-12-18T08:06:09;102893.56;;;-5.31;100.00
72896;BME280;61036;53.224;6.554;2022-12-18T08:08:35;102890.19;;;-5.25;100.00
72896;BME280;61036;53.224;6.554;2022-12-18T08:11:01;102892.88;;;-5.23;100.00
72896;BME280;61036;53.224;6.554;2022-12-18T08:13:27;102885.28;;;-5.11;100.00
72896;BME280;61036;53.224;6.554;2022-12-18T08:16:04;102878.34;;;-5.06;100.00
72896;BME280;61036;53.224;6.554;2022-12-18T08:18:32;102867.81;;;-5.08;100.00
72896;BME280;61036;53.224;6.554;2022-12-18T08:21:07;102875.84;;;-5.01;100.00
72896;BME280;61036;53.224;6.554;2022-12-18T08:23:33;102873.22;;;-5.00;100.00
72896;BME280;61036;53.224;6.554;2022-12-18T08:25:58;102866.25;;;-4.98;100.00
72896;BME280;61036;53.224;6.554;2022-12-18T08:28:24;102869.69;;;-5.00;100.00
72896;BME280;61036;53.224;6.554;2022-12-18T08:30:51;102863.50;;;-5.02;100.00
72896;BME280;61036;53.224;6.554;2022-12-18T08:33:19;102870.00;;;-4.87;100.00
72896;BME280;61036;53.224;6.554;2022-12-18T08:35:46;102873.53;;;-4.85;100.00
72896;BME280;61036;53.224;6.554;2022-12-18T08:38:11;102879.16;;;-4.69;100.00
72896;BME280;61036;53.224;6.554;2022-12-18T08:40:39;102876.78;;;-4.57;100.00
72896;BME280;61036;53.224;6.554;2022-12-18T08:43:04;102878.44;;;-4.61;100.00
72896;BME280;61036;53.224;6.554;2022-12-18T08:45:48;102884.56;;;-4.63;100.00
72896;BME280;61036;53.224;6.554;2022-12-18T08:48:14;102884.19;;;-4.80;100.00
72896;BME280;61036;53.224;6.554;2022-12-18T08:50:40;102887.16;;;-5.04;100.00
72896;BME280;61036;53.224;6.554;2022-12-18T08:53:08;102897.22;;;-4.85;100.00
72896;BME280;61036;53.224;6.554;2022-12-18T08:55:34;102902.88;;;-5.07;100.00
72896;BME280;61036;53.224;6.554;2022-12-18T08:58:00;102906.75;;;-4.91;100.00
72896;BME280;61036;53.224;6.554;2022-12-18T09:00:25;102901.66;;;-4.82;100.00
72896;BME280;61036;53.224;6.554;2022-12-18T09:02:51;102903.63;;;-4.73;100.00
72896;BME280;61036;53.224;6.554;2022-12-18T09:05:17;102906.50;;;-4.61;100.00
72896;BME280;61036;53.224;6.554;2022-12-18T09:07:43;102907.88;;;-4.78;100.00
72896;BME280;61036;53.224;6.554;2022-12-18T09:10:09;102901.28;;;-4.60;100.00
72896;BME280;61036;53.224;6.554;2022-12-18T09:12:39;102900.03;;;-4.34;100.00
72896;BME280;61036;53.224;6.554;2022-12-18T09:15:05;102899.66;;;-4.53;100.00
72896;BME280;61036;53.224;6.554;2022-12-18T09:17:31;102902.53;;;-4.41;100.00
72896;BME280;61036;53.224;6.554;2022-12-18T09:19:56;102898.16;;;-4.42;100.00
72896;BME280;61036;53.224;6.554;2022-12-18T09:22:22;102896.28;;;-4.46;100.00
72896;BME280;61036;53.224;6.554;2022-12-18T09:24:50;102885.94;;;-4.37;100.00
72896;BME280;61036;53.224;6.554;2022-12-18T09:27:16;102886.47;;;-4.09;100.00
72896;BME280;61036;53.224;6.554;2022-12-18T09:29:41;102896.97;;;-4.12;100.00
72896;BME280;61036;53.224;6.554;2022-12-18T09:32:07;102901.38;;;-4.11;100.00
72896;BME280;61036;53.224;6.554;2022-12-18T09:34:32;102894.25;;;-3.66;100.00
72896;BME280;61036;53.224;6.554;2022-12-18T09:36:58;102878.97;;;-3.87;100.00
72896;BME280;61036;53.224;6.554;2022-12-18T09:39:23;102866.25;;;-3.01;100.00
72896;BME280;61036;53.224;6.554;2022-12-18T09:41:54;102854.56;;;-2.49;100.00
72896;BME280;61036;53.224;6.554;2022-12-18T09:44:34;102855.19;;;-2.69;100.00
72896;BME280;61036;53.224;6.554;2022-12-18T09:47:09;102861.50;;;-3.81;100.00
72896;BME280;61036;53.224;6.554;2022-12-18T09:49:41;102873.63;;;-3.36;100.00
72896;BME280;61036;53.224;6.554;2022-12-18T09:52:15;102875.69;;;-3.73;100.00
72896;BME280;61036;53.224;6.554;2022-12-18T09:54:55;102868.53;;;-3.81;100.00
72896;BME280;61036;53.224;6.554;2022-12-18T09:57:24;102861.06;;;-4.04;100.00
72896;BME280;61036;53.224;6.554;2022-12-18T09:59:59;102852.94;;;-4.18;100.00
72896;BME280;61036;53.224;6.554;2022-12-18T10:02:37;102863.69;;;-4.05;100.00
72896;BME280;61036;53.224;6.554;2022-12-18T10:05:10;102867.53;;;-3.86;100.00
72896;BME280;61036;53.224;6.554;2022-12-18T10:07:47;102865.44;;;-2.93;100.00
72896;BME280;61036;53.224;6.554;2022-12-18T10:10:23;102851.38;;;-2.15;100.00
72896;BME280;61036;53.224;6.554;2022-12-18T10:18:18;102832.25;;;-0.10;100.00
72896;BME280;61036;53.224;6.554;2022-12-18T10:20:51;102830.78;;;-1.53;100.00
72896;BME280;61036;53.224;6.554;2022-12-18T10:23:42;102834.94;;;-2.68;100.00
72896;BME280;61036;53.224;6.554;2022-12-18T10:26:12;102841.00;;;-2.79;100.00
72896;BME280;61036;53.224;6.554;2022-12-18T10:28:40;102833.09;;;-2.77;100.00
72896;BME280;61036;53.224;6.554;2022-12-18T10:31:21;102833.78;;;-2.93;100.00
72896;BME280;61036;53.224;6.554;2022-12-18T10:33:49;102826.16;;;-3.34;100.00
72896;BME280;61036;53.224;6.554;2022-12-18T10:36:15;102830.19;;;-3.61;100.00
72896;BME280;61036;53.224;6.554;2022-12-18T10:38:41;102820.94;;;-3.31;100.00
72896;BME280;61036;53.224;6.554;2022-12-18T10:43:48;102818.03;;;-3.50;100.00
72896;BME280;61036;53.224;6.554;2022-12-18T10:46:34;102808.53;;;-3.38;100.00
72896;BME280;61036;53.224;6.554;2022-12-18T10:48:59;102802.19;;;-3.50;100.00
72896;BME280;61036;53.224;6.554;2022-12-18T10:51:35;102797.84;;;-3.46;100.00
72896;BME280;61036;53.224;6.554;2022-12-18T10:54:13;102789.66;;;-3.66;100.00
72896;BME280;61036;53.224;6.554;2022-12-18T10:56:39;102788.94;;;-3.57;100.00
72896;BME280;61036;53.224;6.554;2022-12-18T10:59:07;102788.94;;;-3.56;100.00
72896;BME280;61036;53.224;6.554;2022-12-18T11:01:54;102776.88;;;-3.38;100.00
72896;BME280;61036;53.224;6.554;2022-12-18T11:04:25;102790.09;;;-3.37;100.00
72896;BME280;61036;53.224;6.554;2022-12-18T11:07:08;102781.31;;;-3.34;100.00
72896;BME280;61036;53.224;6.554;2022-12-18T11:09:38;102782.16;;;-3.38;100.00
72896;BME280;61036;53.224;6.554;2022-12-18T11:12:24;102775.28;;;-3.27;100.00
72896;BME280;61036;53.224;6.554;2022-12-18T11:14:56;102767.53;;;-3.15;100.00
72896;BME280;61036;53.224;6.554;2022-12-18T11:17:33;102765.56;;;-3.28;100.00
72896;BME280;61036;53.224;6.554;2022-12-18T11:22:58;102756.13;;;-3.11;100.00
72896;BME280;61036;53.224;6.554;2022-12-18T11:25:26;102763.94;;;-3.20;100.00
72896;BME280;61036;53.224;6.554;2022-12-18T11:27:58;102755.31;;;-3.05;100.00
72896;BME280;61036;53.224;6.554;2022-12-18T11:32:56;102750.97;;;-3.02;100.00
72896;BME280;61036;53.224;6.554;2022-12-18T11:38:04;102742.50;;;-2.73;100.00
72896;BME280;61036;53.224;6.554;2022-12-18T11:40:36;102753.03;;;-2.76;100.00
72896;BME280;61036;53.224;6.554;2022-12-18T11:43:08;102745.97;;;-2.76;100.00
72896;BME280;61036;53.224;6.554;2022-12-18T11:45:41;102751.41;;;-2.60;100.00
72896;BME280;61036;53.224;6.554;2022-12-18T11:48:22;102744.38;;;-2.61;100.00
72896;BME280;61036;53.224;6.554;2022-12-18T11:50:52;102739.09;;;-2.60;100.00
72896;BME280;61036;53.224;6.554;2022-12-18T11:53:19;102725.91;;;-2.58;100.00
72896;BME280;61036;53.224;6.554;2022-12-18T12:09:32;102690.69;;;-2.62;100.00
72896;BME280;61036;53.224;6.554;2022-12-18T12:15:11;102675.75;;;-2.54;100.00
72896;BME280;61036;53.224;6.554;2022-12-18T12:20:25;102668.88;;;-2.36;100.00
72896;BME280;61036;53.224;6.554;2022-12-18T12:25:50;102655.56;;;-2.47;100.00
72896;BME280;61036;53.224;6.554;2022-12-18T12:34:46;102637.13;;;-2.42;100.00
72896;BME280;61036;53.224;6.554;2022-12-18T12:37:36;102631.91;;;-2.30;100.00
72896;BME280;61036;53.224;6.554;2022-12-18T12:40:05;102623.16;;;-2.20;100.00
72896;BME280;61036;53.224;6.554;2022-12-18T12:42:44;102615.31;;;-2.12;100.00
72896;BME280;61036;53.224;6.554;2022-12-18T12:45:40;102597.66;;;-2.16;100.00
72896;BME280;61036;53.224;6.554;2022-12-18T12:53:39;102596.91;;;-1.95;100.00
72896;BME280;61036;53.224;6.554;2022-12-18T12:56:06;102583.75;;;-1.78;100.00
72896;BME280;61036;53.224;6.554;2022-12-18T13:03:50;102584.59;;;-1.84;100.00
72896;BME280;61036;53.224;6.554;2022-12-18T13:06:45;102566.09;;;-1.81;100.00
72896;BME280;61036;53.224;6.554;2022-12-18T13:09:13;102566.16;;;-1.66;100.00
72896;BME280;61036;53.224;6.554;2022-12-18T13:11:41;102574.09;;;-1.59;100.00
72896;BME280;61036;53.224;6.554;2022-12-18T13:14:37;102571.47;;;-1.61;100.00
72896;BME280;61036;53.224;6.554;2022-12-18T13:17:28;102567.91;;;-1.71;100.00
72896;BME280;61036;53.224;6.554;2022-12-18T13:20:09;102569.66;;;-1.73;100.00
72896;BME280;61036;53.224;6.554;2022-12-18T13:22:38;102567.03;;;-1.64;100.00
72896;BME280;61036;53.224;6.554;2022-12-18T13:43:45;102540.63;;;-1.62;100.00
72896;BME280;61036;53.224;6.554;2022-12-18T13:49:04;102538.81;;;-1.72;100.00
72896;BME280;61036;53.224;6.554;2022-12-18T13:51:35;102537.97;;;-1.68;100.00
72896;BME280;61036;53.224;6.554;2022-12-18T13:54:37;102531.78;;;-1.70;100.00
72896;BME280;61036;53.224;6.554;2022-12-18T13:57:23;102523.81;;;-1.69;100.00
72896;BME280;61036;53.224;6.554;2022-12-18T13:59:50;102524.72;;;-1.70;100.00
72896;BME280;61036;53.224;6.554;2022-12-18T14:02:20;102527.38;;;-1.67;100.00
72896;BME280;61036;53.224;6.554;2022-12-18T14:04:48;102523.81;;;-1.69;100.00
72896;BME280;61036;53.224;6.554;2022-12-18T14:07:26;102520.28;;;-1.72;100.00
72896;BME280;61036;53.224;6.554;2022-12-18T14:09:55;102524.72;;;-1.67;100.00
72896;BME280;61036;53.224;6.554;2022-12-18T14:12:27;102514.13;;;-1.70;100.00
72896;BME280;61036;53.224;6.554;2022-12-18T14:15:31;102511.50;;;-1.71;100.00
72896;BME280;61036;53.224;6.554;2022-12-18T14:18:01;102502.69;;;-1.67;100.00
72896;BME280;61036;53.224;6.554;2022-12-18T14:20:31;102501.81;;;-1.68;100.00
72896;BME280;61036;53.224;6.554;2022-12-18T14:22:58;102507.09;;;-1.66;100.00
72896;BME280;61036;53.224;6.554;2022-12-18T14:25:29;102509.75;;;-1.68;100.00
72896;BME280;61036;53.224;6.554;2022-12-18T14:30:41;102502.66;;;-1.73;100.00
72896;BME280;61036;53.224;6.554;2022-12-18T14:33:18;102496.47;;;-1.80;100.00
72896;BME280;61036;53.224;6.554;2022-12-18T14:35:57;102503.53;;;-1.79;100.00
72896;BME280;61036;53.224;6.554;2022-12-18T14:38:30;102498.25;;;-1.80;100.00
72896;BME280;61036;53.224;6.554;2022-12-18T14:41:04;102488.56;;;-1.80;100.00
72896;BME280;61036;53.224;6.554;2022-12-18T14:43:38;102495.59;;;-1.80;100.00
72896;BME280;61036;53.224;6.554;2022-12-18T14:49:05;102477.09;;;-1.79;100.00
72896;BME280;61036;53.224;6.554;2022-12-18T14:51:48;102467.41;;;-1.80;100.00